sensor_id;sensor_type;location;lat;lon;timestamp;temperature;humidity
17364;DHT22;8799;43.594;13.526;2022-07-23T00:01:29;28.40;53.40
17364;DHT22;8799;43.594;13.526;2022-07-23T00:03:57;28.30;53.00
17364;DHT22;8799;43.594;13.526;2022-07-23T00:06:26;28.20;53.00
17364;DHT22;8799;43.594;13.526;2022-07-23T00:08:54;28.10;53.60
17364;DHT22;8799;43.594;13.526;2022-07-23T00:11:21;28.00;53.70
17364;DHT22;8799;43.594;13.526;2022-07-23T00:13:50;27.90;53.50
17364;DHT22;8799;43.594;13.526;2022-07-23T00:16:18;27.90;53.60
17364;DHT22;8799;43.594;13.526;2022-07-23T00:18:45;27.80;53.70
17364;DHT22;8799;43.594;13.526;2022-07-23T00:21:13;27.80;53.70
17364;DHT22;8799;43.594;13.526;2022-07-23T00:23:42;27.80;53.80
17364;DHT22;8799;43.594;13.526;2022-07-23T00:26:10;27.80;53.90
17364;DHT22;8799;43.594;13.526;2022-07-23T00:28:38;27.70;54.00
17364;DHT22;8799;43.594;13.526;2022-07-23T00:31:27;27.70;53.80
17364;DHT22;8799;43.594;13.526;2022-07-23T00:33:55;27.80;54.10
17364;DHT22;8799;43.594;13.526;2022-07-23T00:36:23;27.70;54.20
17364;DHT22;8799;43.594;13.526;2022-07-23T00:38:53;27.70;54.20
17364;DHT22;8799;43.594;13.526;2022-07-23T00:41:20;27.60;54.30
17364;DHT22;8799;43.594;13.526;2022-07-23T00:43:49;27.50;54.30
17364;DHT22;8799;43.594;13.526;2022-07-23T00:46:19;27.50;54.20
17364;DHT22;8799;43.594;13.526;2022-07-23T00:48:52;27.50;54.20
17364;DHT22;8799;43.594;13.526;2022-07-23T00:51:20;27.40;54.30
17364;DHT22;8799;43.594;13.526;2022-07-23T00:53:48;27.40;54.40
17364;DHT22;8799;43.594;13.526;2022-07-23T00:56:17;27.40;54.50
17364;DHT22;8799;43.594;13.526;2022-07-23T00:58:45;27.40;54.50
17364;DHT22;8799;43.594;13.526;2022-07-23T01:01:13;27.40;54.50
17364;DHT22;8799;43.594;13.526;2022-07-23T01:03:41;27.40;54.60
17364;DHT22;8799;43.594;13.526;2022-07-23T01:06:09;27.40;54.60
17364;DHT22;8799;43.594;13.526;2022-07-23T01:08:37;27.40;54.60
17364;DHT22;8799;43.594;13.526;2022-07-23T01:11:05;27.40;54.60
17364;DHT22;8799;43.594;13.526;2022-07-23T01:13:34;27.40;54.70
17364;DHT22;8799;43.594;13.526;2022-07-23T01:16:03;27.40;54.90
17364;DHT22;8799;43.594;13.526;2022-07-23T01:18:31;27.30;55.00
17364;DHT22;8799;43.594;13.526;2022-07-23T01:20:59;27.30;55.10
17364;DHT22;8799;43.594;13.526;2022-07-23T01:23:28;27.30;55.20
17364;DHT22;8799;43.594;13.526;2022-07-23T01:25:56;27.30;55.30
17364;DHT22;8799;43.594;13.526;2022-07-23T01:28:23;27.30;55.20
17364;DHT22;8799;43.594;13.526;2022-07-23T01:30:51;27.30;55.10
17364;DHT22;8799;43.594;13.526;2022-07-23T01:33:19;27.20;54.80
17364;DHT22;8799;43.594;13.526;2022-07-23T01:35:47;27.20;54.80
17364;DHT22;8799;43.594;13.526;2022-07-23T01:38:14;27.20;54.90
17364;DHT22;8799;43.594;13.526;2022-07-23T01:40:43;27.20;55.10
17364;DHT22;8799;43.594;13.526;2022-07-23T01:43:11;27.20;55.20
17364;DHT22;8799;43.594;13.526;2022-07-23T01:45:39;27.20;55.40
17364;DHT22;8799;43.594;13.526;2022-07-23T01:48:07;27.20;55.20
17364;DHT22;8799;43.594;13.526;2022-07-23T01:50:34;27.20;55.20
17364;DHT22;8799;43.594;13.526;2022-07-23T01:53:02;27.20;55.00
17364;DHT22;8799;43.594;13.526;2022-07-23T01:55:30;27.30;54.70
17364;DHT22;8799;43.594;13.526;2022-07-23T01:57:59;27.30;54.50
17364;DHT22;8799;43.594;13.526;2022-07-23T02:00:26;27.30;54.70
17364;DHT22;8799;43.594;13.526;2022-07-23T02:02:54;27.30;55.00
17364;DHT22;8799;43.594;13.526;2022-07-23T02:05:22;27.20;55.10
17364;DHT22;8799;43.594;13.526;2022-07-23T02:07:49;27.20;54.90
17364;DHT22;8799;43.594;13.526;2022-07-23T02:10:17;27.30;54.80
17364;DHT22;8799;43.594;13.526;2022-07-23T02:12:45;27.30;54.80
17364;DHT22;8799;43.594;13.526;2022-07-23T02:15:19;27.30;54.80
17364;DHT22;8799;43.594;13.526;2022-07-23T02:17:46;27.30;54.60
17364;DHT22;8799;43.594;13.526;2022-07-23T02:20:14;27.30;54.30
17364;DHT22;8799;43.594;13.526;2022-07-23T02:22:42;27.30;54.00
17364;DHT22;8799;43.594;13.526;2022-07-23T02:25:10;27.30;54.00
17364;DHT22;8799;43.594;13.526;2022-07-23T02:27:37;27.30;54.10
17364;DHT22;8799;43.594;13.526;2022-07-23T02:30:07;27.30;53.90
17364;DHT22;8799;43.594;13.526;2022-07-23T02:32:36;27.30;54.10
17364;DHT22;8799;43.594;13.526;2022-07-23T02:35:06;27.30;53.70
17364;DHT22;8799;43.594;13.526;2022-07-23T02:37:34;27.30;54.00
17364;DHT22;8799;43.594;13.526;2022-07-23T02:40:02;27.30;54.30
17364;DHT22;8799;43.594;13.526;2022-07-23T02:42:29;27.20;54.90
17364;DHT22;8799;43.594;13.526;2022-07-23T02:44:56;27.20;55.40
17364;DHT22;8799;43.594;13.526;2022-07-23T02:47:24;27.20;55.60
17364;DHT22;8799;43.594;13.526;2022-07-23T02:49:53;27.10;55.90
17364;DHT22;8799;43.594;13.526;2022-07-23T02:52:20;27.10;55.60
17364;DHT22;8799;43.594;13.526;2022-07-23T02:54:48;27.10;55.40
17364;DHT22;8799;43.594;13.526;2022-07-23T02:57:16;27.00;55.40
17364;DHT22;8799;43.594;13.526;2022-07-23T02:59:43;27.00;55.70
17364;DHT22;8799;43.594;13.526;2022-07-23T03:02:11;27.00;55.60
17364;DHT22;8799;43.594;13.526;2022-07-23T03:04:39;27.00;55.80
17364;DHT22;8799;43.594;13.526;2022-07-23T03:07:10;26.90;56.10
17364;DHT22;8799;43.594;13.526;2022-07-23T03:09:37;26.80;56.60
17364;DHT22;8799;43.594;13.526;2022-07-23T03:12:06;26.70;56.90
17364;DHT22;8799;43.594;13.526;2022-07-23T03:14:34;26.60;57.20
17364;DHT22;8799;43.594;13.526;2022-07-23T03:17:01;26.60;57.70
17364;DHT22;8799;43.594;13.526;2022-07-23T03:19:30;26.50;58.10
17364;DHT22;8799;43.594;13.526;2022-07-23T03:22:02;26.50;58.20
17364;DHT22;8799;43.594;13.526;2022-07-23T03:24:32;26.60;58.10
17364;DHT22;8799;43.594;13.526;2022-07-23T03:27:14;26.70;58.10
17364;DHT22;8799;43.594;13.526;2022-07-23T03:29:42;26.80;57.80
17364;DHT22;8799;43.594;13.526;2022-07-23T03:32:09;26.90;57.60
17364;DHT22;8799;43.594;13.526;2022-07-23T03:34:37;27.00;57.90
17364;DHT22;8799;43.594;13.526;2022-07-23T03:37:05;27.00;57.90
17364;DHT22;8799;43.594;13.526;2022-07-23T03:39:34;27.10;57.70
17364;DHT22;8799;43.594;13.526;2022-07-23T03:42:02;27.10;57.60
17364;DHT22;8799;43.594;13.526;2022-07-23T03:44:30;27.10;57.40
17364;DHT22;8799;43.594;13.526;2022-07-23T03:46:57;27.20;57.30
17364;DHT22;8799;43.594;13.526;2022-07-23T03:49:25;27.20;57.20
17364;DHT22;8799;43.594;13.526;2022-07-23T03:51:52;27.20;57.10
17364;DHT22;8799;43.594;13.526;2022-07-23T03:54:20;27.20;57.00
17364;DHT22;8799;43.594;13.526;2022-07-23T03:56:50;27.20;57.00
17364;DHT22;8799;43.594;13.526;2022-07-23T03:59:18;27.20;56.80
17364;DHT22;8799;43.594;13.526;2022-07-23T04:01:46;27.30;56.70
17364;DHT22;8799;43.594;13.526;2022-07-23T04:04:13;27.30;56.60
17364;DHT22;8799;43.594;13.526;2022-07-23T04:06:41;27.30;56.40
17364;DHT22;8799;43.594;13.526;2022-07-23T04:09:09;27.30;56.30
17364;DHT22;8799;43.594;13.526;2022-07-23T04:11:36;27.30;56.20
17364;DHT22;8799;43.594;13.526;2022-07-23T04:14:06;27.30;56.10
17364;DHT22;8799;43.594;13.526;2022-07-23T04:16:38;27.30;56.00
17364;DHT22;8799;43.594;13.526;2022-07-23T04:19:06;27.30;56.00
17364;DHT22;8799;43.594;13.526;2022-07-23T04:21:34;27.30;55.90
17364;DHT22;8799;43.594;13.526;2022-07-23T04:24:02;27.30;55.90
17364;DHT22;8799;43.594;13.526;2022-07-23T04:26:29;27.30;55.90
17364;DHT22;8799;43.594;13.526;2022-07-23T04:28:57;27.40;55.90
17364;DHT22;8799;43.594;13.526;2022-07-23T04:31:26;27.40;55.90
17364;DHT22;8799;43.594;13.526;2022-07-23T04:33:54;27.40;55.90
17364;DHT22;8799;43.594;13.526;2022-07-23T04:36:22;27.40;55.90
17364;DHT22;8799;43.594;13.526;2022-07-23T04:38:50;27.40;55.90
17364;DHT22;8799;43.594;13.526;2022-07-23T04:41:18;27.40;55.90
17364;DHT22;8799;43.594;13.526;2022-07-23T04:43:46;27.40;55.90
17364;DHT22;8799;43.594;13.526;2022-07-23T04:46:14;27.40;55.80
17364;DHT22;8799;43.594;13.526;2022-07-23T04:48:44;27.40;55.70
17364;DHT22;8799;43.594;13.526;2022-07-23T04:51:11;27.40;55.60
17364;DHT22;8799;43.594;13.526;2022-07-23T04:53:39;27.40;55.50
17364;DHT22;8799;43.594;13.526;2022-07-23T04:56:07;27.40;55.50
17364;DHT22;8799;43.594;13.526;2022-07-23T04:58:37;27.40;55.50
17364;DHT22;8799;43.594;13.526;2022-07-23T05:01:04;27.40;55.40
17364;DHT22;8799;43.594;13.526;2022-07-23T05:03:32;27.40;55.30
17364;DHT22;8799;43.594;13.526;2022-07-23T05:06:02;27.50;55.10
17364;DHT22;8799;43.594;13.526;2022-07-23T05:08:30;27.50;55.00
17364;DHT22;8799;43.594;13.526;2022-07-23T05:10:57;27.50;55.00
17364;DHT22;8799;43.594;13.526;2022-07-23T05:13:25;27.50;54.90
17364;DHT22;8799;43.594;13.526;2022-07-23T05:15:53;27.50;54.80
17364;DHT22;8799;43.594;13.526;2022-07-23T05:18:20;27.50;54.80
17364;DHT22;8799;43.594;13.526;2022-07-23T05:20:48;27.50;54.70
17364;DHT22;8799;43.594;13.526;2022-07-23T05:23:17;27.50;54.60
17364;DHT22;8799;43.594;13.526;2022-07-23T05:25:45;27.50;54.50
17364;DHT22;8799;43.594;13.526;2022-07-23T05:28:12;27.50;54.50
17364;DHT22;8799;43.594;13.526;2022-07-23T05:30:40;27.50;54.40
17364;DHT22;8799;43.594;13.526;2022-07-23T05:33:08;27.50;54.40
17364;DHT22;8799;43.594;13.526;2022-07-23T05:35:35;27.50;54.40
17364;DHT22;8799;43.594;13.526;2022-07-23T05:38:03;27.50;54.60
17364;DHT22;8799;43.594;13.526;2022-07-23T05:40:32;27.50;54.70
17364;DHT22;8799;43.594;13.526;2022-07-23T05:43:00;27.60;54.70
17364;DHT22;8799;43.594;13.526;2022-07-23T05:45:28;27.60;55.00
17364;DHT22;8799;43.594;13.526;2022-07-23T05:47:55;27.60;55.00
17364;DHT22;8799;43.594;13.526;2022-07-23T05:50:23;27.60;55.10
17364;DHT22;8799;43.594;13.526;2022-07-23T05:52:51;27.60;55.20
17364;DHT22;8799;43.594;13.526;2022-07-23T05:55:20;27.60;55.40
17364;DHT22;8799;43.594;13.526;2022-07-23T05:57:49;27.60;55.90
17364;DHT22;8799;43.594;13.526;2022-07-23T06:00:16;27.60;56.40
17364;DHT22;8799;43.594;13.526;2022-07-23T06:02:44;27.70;56.80
17364;DHT22;8799;43.594;13.526;2022-07-23T06:05:12;27.70;56.80
17364;DHT22;8799;43.594;13.526;2022-07-23T06:07:40;27.70;56.60
17364;DHT22;8799;43.594;13.526;2022-07-23T06:10:09;27.70;56.90
17364;DHT22;8799;43.594;13.526;2022-07-23T06:12:37;27.70;57.00
17364;DHT22;8799;43.594;13.526;2022-07-23T06:15:08;27.70;57.10
17364;DHT22;8799;43.594;13.526;2022-07-23T06:17:36;27.80;57.40
17364;DHT22;8799;43.594;13.526;2022-07-23T06:20:06;27.80;57.90
17364;DHT22;8799;43.594;13.526;2022-07-23T06:22:34;27.80;58.40
17364;DHT22;8799;43.594;13.526;2022-07-23T06:25:02;27.90;58.50
17364;DHT22;8799;43.594;13.526;2022-07-23T06:27:30;27.90;58.70
17364;DHT22;8799;43.594;13.526;2022-07-23T06:29:57;27.90;58.70
17364;DHT22;8799;43.594;13.526;2022-07-23T06:32:27;27.90;58.90
17364;DHT22;8799;43.594;13.526;2022-07-23T06:34:54;27.90;58.90
17364;DHT22;8799;43.594;13.526;2022-07-23T06:37:22;27.90;58.90
17364;DHT22;8799;43.594;13.526;2022-07-23T06:39:49;27.90;59.00
17364;DHT22;8799;43.594;13.526;2022-07-23T06:42:17;27.90;59.00
17364;DHT22;8799;43.594;13.526;2022-07-23T06:44:45;27.90;59.60
17364;DHT22;8799;43.594;13.526;2022-07-23T06:47:13;27.90;59.40
17364;DHT22;8799;43.594;13.526;2022-07-23T06:49:42;27.90;59.40
17364;DHT22;8799;43.594;13.526;2022-07-23T06:52:09;28.00;59.60
17364;DHT22;8799;43.594;13.526;2022-07-23T06:54:37;28.00;60.00
17364;DHT22;8799;43.594;13.526;2022-07-23T06:57:08;28.00;60.10
17364;DHT22;8799;43.594;13.526;2022-07-23T06:59:35;28.00;60.20
17364;DHT22;8799;43.594;13.526;2022-07-23T07:02:06;28.10;60.10
17364;DHT22;8799;43.594;13.526;2022-07-23T07:04:33;28.10;59.90
17364;DHT22;8799;43.594;13.526;2022-07-23T07:07:03;28.10;60.00
17364;DHT22;8799;43.594;13.526;2022-07-23T07:09:31;28.10;60.10
17364;DHT22;8799;43.594;13.526;2022-07-23T07:11:59;28.10;59.80
17364;DHT22;8799;43.594;13.526;2022-07-23T07:14:27;28.10;59.20
17364;DHT22;8799;43.594;13.526;2022-07-23T07:16:55;28.20;59.20
17364;DHT22;8799;43.594;13.526;2022-07-23T07:19:23;28.20;58.90
17364;DHT22;8799;43.594;13.526;2022-07-23T07:21:51;28.20;58.90
17364;DHT22;8799;43.594;13.526;2022-07-23T07:24:20;28.20;58.50
17364;DHT22;8799;43.594;13.526;2022-07-23T07:26:48;28.20;58.40
17364;DHT22;8799;43.594;13.526;2022-07-23T07:29:17;28.20;58.40
17364;DHT22;8799;43.594;13.526;2022-07-23T07:31:44;28.20;58.10
17364;DHT22;8799;43.594;13.526;2022-07-23T07:34:12;28.30;57.70
17364;DHT22;8799;43.594;13.526;2022-07-23T07:36:39;28.30;57.60
17364;DHT22;8799;43.594;13.526;2022-07-23T07:39:07;28.30;57.40
17364;DHT22;8799;43.594;13.526;2022-07-23T07:41:38;28.30;57.10
17364;DHT22;8799;43.594;13.526;2022-07-23T07:44:06;28.40;56.50
17364;DHT22;8799;43.594;13.526;2022-07-23T07:46:33;28.40;56.20
17364;DHT22;8799;43.594;13.526;2022-07-23T07:49:01;28.40;56.20
17364;DHT22;8799;43.594;13.526;2022-07-23T07:51:29;28.50;56.00
17364;DHT22;8799;43.594;13.526;2022-07-23T07:53:58;28.50;56.00
17364;DHT22;8799;43.594;13.526;2022-07-23T07:56:30;28.60;56.00
17364;DHT22;8799;43.594;13.526;2022-07-23T07:58:59;28.60;56.00
17364;DHT22;8799;43.594;13.526;2022-07-23T08:01:27;28.60;56.00
17364;DHT22;8799;43.594;13.526;2022-07-23T08:03:54;28.60;56.00
17364;DHT22;8799;43.594;13.526;2022-07-23T08:06:22;28.70;55.90
17364;DHT22;8799;43.594;13.526;2022-07-23T08:08:50;28.70;55.50
17364;DHT22;8799;43.594;13.526;2022-07-23T08:11:18;28.70;55.60
17364;DHT22;8799;43.594;13.526;2022-07-23T08:13:46;28.70;55.60
17364;DHT22;8799;43.594;13.526;2022-07-23T08:16:15;28.70;55.50
17364;DHT22;8799;43.594;13.526;2022-07-23T08:18:42;28.70;56.00
17364;DHT22;8799;43.594;13.526;2022-07-23T08:21:10;28.80;55.90
17364;DHT22;8799;43.594;13.526;2022-07-23T08:23:41;28.80;55.80
17364;DHT22;8799;43.594;13.526;2022-07-23T08:26:08;28.80;55.60
17364;DHT22;8799;43.594;13.526;2022-07-23T08:28:36;28.80;55.10
17364;DHT22;8799;43.594;13.526;2022-07-23T08:31:08;28.90;54.60
17364;DHT22;8799;43.594;13.526;2022-07-23T08:33:39;29.10;54.50
17364;DHT22;8799;43.594;13.526;2022-07-23T08:36:08;29.20;53.60
17364;DHT22;8799;43.594;13.526;2022-07-23T08:38:36;29.30;53.50
17364;DHT22;8799;43.594;13.526;2022-07-23T08:41:06;29.30;53.40
17364;DHT22;8799;43.594;13.526;2022-07-23T08:43:35;29.30;52.90
17364;DHT22;8799;43.594;13.526;2022-07-23T08:46:03;29.40;52.80
17364;DHT22;8799;43.594;13.526;2022-07-23T08:48:33;29.50;52.40
17364;DHT22;8799;43.594;13.526;2022-07-23T08:51:04;29.60;52.60
17364;DHT22;8799;43.594;13.526;2022-07-23T08:53:33;29.60;52.80
17364;DHT22;8799;43.594;13.526;2022-07-23T08:56:03;29.60;52.30
17364;DHT22;8799;43.594;13.526;2022-07-23T08:58:31;29.70;52.10
17364;DHT22;8799;43.594;13.526;2022-07-23T09:00:59;29.80;52.10
17364;DHT22;8799;43.594;13.526;2022-07-23T09:03:29;29.80;52.40
17364;DHT22;8799;43.594;13.526;2022-07-23T09:05:57;29.80;52.60
17364;DHT22;8799;43.594;13.526;2022-07-23T09:08:34;29.90;52.50
17364;DHT22;8799;43.594;13.526;2022-07-23T09:11:04;30.00;52.10
17364;DHT22;8799;43.594;13.526;2022-07-23T09:13:34;30.00;51.80
17364;DHT22;8799;43.594;13.526;2022-07-23T09:16:05;29.80;51.50
17364;DHT22;8799;43.594;13.526;2022-07-23T09:18:38;29.80;51.40
17364;DHT22;8799;43.594;13.526;2022-07-23T09:21:12;29.80;51.40
17364;DHT22;8799;43.594;13.526;2022-07-23T09:23:43;29.90;51.30
17364;DHT22;8799;43.594;13.526;2022-07-23T09:26:26;30.00;51.40
17364;DHT22;8799;43.594;13.526;2022-07-23T09:28:58;30.00;51.20
17364;DHT22;8799;43.594;13.526;2022-07-23T09:31:32;29.90;50.70
17364;DHT22;8799;43.594;13.526;2022-07-23T09:34:11;29.80;50.80
17364;DHT22;8799;43.594;13.526;2022-07-23T09:36:39;30.00;51.30
17364;DHT22;8799;43.594;13.526;2022-07-23T09:39:10;30.10;50.60
17364;DHT22;8799;43.594;13.526;2022-07-23T09:41:42;30.10;50.50
17364;DHT22;8799;43.594;13.526;2022-07-23T09:44:12;30.00;50.60
17364;DHT22;8799;43.594;13.526;2022-07-23T09:46:40;29.90;50.20
17364;DHT22;8799;43.594;13.526;2022-07-23T09:49:14;29.90;50.30
17364;DHT22;8799;43.594;13.526;2022-07-23T09:51:54;29.80;50.40
17364;DHT22;8799;43.594;13.526;2022-07-23T09:54:36;29.80;50.50
17364;DHT22;8799;43.594;13.526;2022-07-23T09:57:06;29.80;50.50
17364;DHT22;8799;43.594;13.526;2022-07-23T09:59:37;29.80;50.50
17364;DHT22;8799;43.594;13.526;2022-07-23T10:02:06;29.80;50.40
17364;DHT22;8799;43.594;13.526;2022-07-23T10:04:35;29.80;50.10
17364;DHT22;8799;43.594;13.526;2022-07-23T10:07:04;29.80;50.10
17364;DHT22;8799;43.594;13.526;2022-07-23T10:09:35;29.80;50.10
17364;DHT22;8799;43.594;13.526;2022-07-23T10:12:04;29.80;49.80
17364;DHT22;8799;43.594;13.526;2022-07-23T10:14:43;29.90;50.30
17364;DHT22;8799;43.594;13.526;2022-07-23T10:17:11;29.90;50.30
17364;DHT22;8799;43.594;13.526;2022-07-23T10:19:39;29.80;50.50
17364;DHT22;8799;43.594;13.526;2022-07-23T10:22:09;29.80;50.90
17364;DHT22;8799;43.594;13.526;2022-07-23T10:24:47;29.90;50.70
17364;DHT22;8799;43.594;13.526;2022-07-23T10:27:33;29.90;50.60
17364;DHT22;8799;43.594;13.526;2022-07-23T10:30:09;30.00;50.90
17364;DHT22;8799;43.594;13.526;2022-07-23T10:32:43;29.90;50.30
17364;DHT22;8799;43.594;13.526;2022-07-23T10:35:21;29.90;50.30
17364;DHT22;8799;43.594;13.526;2022-07-23T10:37:56;30.00;50.80
17364;DHT22;8799;43.594;13.526;2022-07-23T10:40:25;29.90;50.40
17364;DHT22;8799;43.594;13.526;2022-07-23T10:42:59;29.90;50.40
17364;DHT22;8799;43.594;13.526;2022-07-23T10:45:29;29.90;50.00
17364;DHT22;8799;43.594;13.526;2022-07-23T10:48:13;30.00;50.80
17364;DHT22;8799;43.594;13.526;2022-07-23T10:50:42;30.00;50.80
17364;DHT22;8799;43.594;13.526;2022-07-23T10:53:13;30.00;50.80
17364;DHT22;8799;43.594;13.526;2022-07-23T10:55:49;30.00;50.90
17364;DHT22;8799;43.594;13.526;2022-07-23T10:58:46;30.00;50.80
17364;DHT22;8799;43.594;13.526;2022-07-23T11:01:32;29.90;49.70
17364;DHT22;8799;43.594;13.526;2022-07-23T11:04:00;29.90;49.40
17364;DHT22;8799;43.594;13.526;2022-07-23T11:09:38;29.90;49.90
17364;DHT22;8799;43.594;13.526;2022-07-23T11:12:33;30.00;50.40
17364;DHT22;8799;43.594;13.526;2022-07-23T11:15:04;30.00;50.50
17364;DHT22;8799;43.594;13.526;2022-07-23T11:17:33;30.00;51.00
17364;DHT22;8799;43.594;13.526;2022-07-23T11:20:16;30.00;51.60
17364;DHT22;8799;43.594;13.526;2022-07-23T11:22:49;30.00;51.90
17364;DHT22;8799;43.594;13.526;2022-07-23T11:25:32;30.00;51.70
17364;DHT22;8799;43.594;13.526;2022-07-23T11:28:16;30.00;51.60
17364;DHT22;8799;43.594;13.526;2022-07-23T11:30:54;29.90;51.10
17364;DHT22;8799;43.594;13.526;2022-07-23T11:33:21;30.00;52.00
17364;DHT22;8799;43.594;13.526;2022-07-23T11:36:01;30.00;52.40
17364;DHT22;8799;43.594;13.526;2022-07-23T11:38:31;30.00;52.80
17364;DHT22;8799;43.594;13.526;2022-07-23T11:41:00;30.00;52.90
17364;DHT22;8799;43.594;13.526;2022-07-23T11:43:29;30.00;52.70
17364;DHT22;8799;43.594;13.526;2022-07-23T11:48:32;30.00;53.50
17364;DHT22;8799;43.594;13.526;2022-07-23T11:51:01;29.90;53.10
17364;DHT22;8799;43.594;13.526;2022-07-23T11:53:30;29.90;52.90
17364;DHT22;8799;43.594;13.526;2022-07-23T11:56:04;30.00;53.20
17364;DHT22;8799;43.594;13.526;2022-07-23T11:58:33;30.00;53.40
17364;DHT22;8799;43.594;13.526;2022-07-23T12:01:01;30.00;53.70
17364;DHT22;8799;43.594;13.526;2022-07-23T12:03:29;30.00;54.10
17364;DHT22;8799;43.594;13.526;2022-07-23T12:05:57;30.00;54.10
17364;DHT22;8799;43.594;13.526;2022-07-23T12:08:26;30.00;54.30
17364;DHT22;8799;43.594;13.526;2022-07-23T12:10:54;30.00;54.70
17364;DHT22;8799;43.594;13.526;2022-07-23T12:13:21;30.00;54.90
17364;DHT22;8799;43.594;13.526;2022-07-23T12:15:52;30.00;55.10
17364;DHT22;8799;43.594;13.526;2022-07-23T12:18:23;30.00;54.90
17364;DHT22;8799;43.594;13.526;2022-07-23T12:20:52;30.00;54.90
17364;DHT22;8799;43.594;13.526;2022-07-23T12:23:23;30.00;55.40
17364;DHT22;8799;43.594;13.526;2022-07-23T12:25:52;30.10;55.60
17364;DHT22;8799;43.594;13.526;2022-07-23T12:28:21;30.00;55.60
17364;DHT22;8799;43.594;13.526;2022-07-23T12:30:52;30.00;55.60
17364;DHT22;8799;43.594;13.526;2022-07-23T12:33:25;30.00;55.70
17364;DHT22;8799;43.594;13.526;2022-07-23T12:35:54;30.00;55.60
17364;DHT22;8799;43.594;13.526;2022-07-23T12:38:24;30.00;55.40
17364;DHT22;8799;43.594;13.526;2022-07-23T12:40:53;30.00;55.40
17364;DHT22;8799;43.594;13.526;2022-07-23T12:43:24;30.00;55.40
17364;DHT22;8799;43.594;13.526;2022-07-23T12:46:04;30.00;55.20
17364;DHT22;8799;43.594;13.526;2022-07-23T12:48:33;30.00;55.00
17364;DHT22;8799;43.594;13.526;2022-07-23T12:51:03;30.00;54.60
17364;DHT22;8799;43.594;13.526;2022-07-23T12:53:37;30.00;54.50
17364;DHT22;8799;43.594;13.526;2022-07-23T12:56:08;30.00;54.30
17364;DHT22;8799;43.594;13.526;2022-07-23T12:58:41;30.10;54.20
17364;DHT22;8799;43.594;13.526;2022-07-23T13:01:22;30.00;54.30
17364;DHT22;8799;43.594;13.526;2022-07-23T13:03:58;30.00;54.00
17364;DHT22;8799;43.594;13.526;2022-07-23T13:06:26;30.00;54.10
17364;DHT22;8799;43.594;13.526;2022-07-23T13:08:54;30.00;54.10
17364;DHT22;8799;43.594;13.526;2022-07-23T13:11:21;30.00;54.00
17364;DHT22;8799;43.594;13.526;2022-07-23T13:13:49;30.10;53.90
17364;DHT22;8799;43.594;13.526;2022-07-23T13:16:18;30.10;53.70
17364;DHT22;8799;43.594;13.526;2022-07-23T13:18:47;30.20;53.60
17364;DHT22;8799;43.594;13.526;2022-07-23T13:21:14;30.10;53.40
17364;DHT22;8799;43.594;13.526;2022-07-23T13:23:42;30.10;53.10
17364;DHT22;8799;43.594;13.526;2022-07-23T13:26:13;30.10;53.00
17364;DHT22;8799;43.594;13.526;2022-07-23T13:28:40;30.10;53.00
17364;DHT22;8799;43.594;13.526;2022-07-23T13:31:14;30.20;52.80
17364;DHT22;8799;43.594;13.526;2022-07-23T13:33:43;30.10;52.80
17364;DHT22;8799;43.594;13.526;2022-07-23T13:36:18;30.10;53.10
17364;DHT22;8799;43.594;13.526;2022-07-23T13:38:46;30.20;52.80
17364;DHT22;8799;43.594;13.526;2022-07-23T13:41:16;30.20;52.30
17364;DHT22;8799;43.594;13.526;2022-07-23T13:43:44;30.20;51.70
17364;DHT22;8799;43.594;13.526;2022-07-23T13:46:12;30.20;51.50
17364;DHT22;8799;43.594;13.526;2022-07-23T13:48:46;30.20;51.10
17364;DHT22;8799;43.594;13.526;2022-07-23T13:51:15;30.20;51.10
17364;DHT22;8799;43.594;13.526;2022-07-23T13:53:43;30.30;51.10
17364;DHT22;8799;43.594;13.526;2022-07-23T13:56:11;30.30;51.20
17364;DHT22;8799;43.594;13.526;2022-07-23T13:58:38;30.30;51.20
17364;DHT22;8799;43.594;13.526;2022-07-23T14:01:06;30.30;51.00
17364;DHT22;8799;43.594;13.526;2022-07-23T14:03:33;30.20;50.80
17364;DHT22;8799;43.594;13.526;2022-07-23T14:06:03;30.20;50.40
17364;DHT22;8799;43.594;13.526;2022-07-23T14:08:31;30.30;50.10
17364;DHT22;8799;43.594;13.526;2022-07-23T14:11:04;30.30;50.00
17364;DHT22;8799;43.594;13.526;2022-07-23T14:13:32;30.20;50.10
17364;DHT22;8799;43.594;13.526;2022-07-23T14:16:00;30.20;50.00
17364;DHT22;8799;43.594;13.526;2022-07-23T14:18:27;30.30;50.00
17364;DHT22;8799;43.594;13.526;2022-07-23T14:20:55;30.30;50.00
17364;DHT22;8799;43.594;13.526;2022-07-23T14:23:25;30.20;50.00
17364;DHT22;8799;43.594;13.526;2022-07-23T14:25:52;30.20;50.10
17364;DHT22;8799;43.594;13.526;2022-07-23T14:28:20;30.30;50.20
17364;DHT22;8799;43.594;13.526;2022-07-23T14:30:48;30.30;50.10
17364;DHT22;8799;43.594;13.526;2022-07-23T14:33:18;30.30;50.10
17364;DHT22;8799;43.594;13.526;2022-07-23T14:35:47;30.30;50.20
17364;DHT22;8799;43.594;13.526;2022-07-23T14:38:14;30.30;49.40
17364;DHT22;8799;43.594;13.526;2022-07-23T14:40:44;30.40;48.30
17364;DHT22;8799;43.594;13.526;2022-07-23T14:43:12;30.40;48.20
17364;DHT22;8799;43.594;13.526;2022-07-23T14:45:42;30.40;48.50
17364;DHT22;8799;43.594;13.526;2022-07-23T14:48:12;30.40;48.80
17364;DHT22;8799;43.594;13.526;2022-07-23T14:50:40;30.40;49.10
17364;DHT22;8799;43.594;13.526;2022-07-23T14:53:11;30.40;49.20
17364;DHT22;8799;43.594;13.526;2022-07-23T14:55:40;30.40;49.30
17364;DHT22;8799;43.594;13.526;2022-07-23T14:58:10;30.40;49.30
17364;DHT22;8799;43.594;13.526;2022-07-23T15:00:39;30.40;48.80
17364;DHT22;8799;43.594;13.526;2022-07-23T15:03:09;30.40;48.70
17364;DHT22;8799;43.594;13.526;2022-07-23T15:05:38;30.40;48.50
17364;DHT22;8799;43.594;13.526;2022-07-23T15:08:09;30.40;48.20
17364;DHT22;8799;43.594;13.526;2022-07-23T15:10:37;30.50;48.30
17364;DHT22;8799;43.594;13.526;2022-07-23T15:13:10;30.60;48.10
17364;DHT22;8799;43.594;13.526;2022-07-23T15:15:38;30.60;47.60
17364;DHT22;8799;43.594;13.526;2022-07-23T15:18:07;30.60;46.80
17364;DHT22;8799;43.594;13.526;2022-07-23T15:20:35;30.60;47.00
17364;DHT22;8799;43.594;13.526;2022-07-23T15:23:05;30.70;46.50
17364;DHT22;8799;43.594;13.526;2022-07-23T15:25:34;30.70;46.00
17364;DHT22;8799;43.594;13.526;2022-07-23T15:28:02;30.80;45.50
17364;DHT22;8799;43.594;13.526;2022-07-23T15:30:32;30.80;45.50
17364;DHT22;8799;43.594;13.526;2022-07-23T15:33:01;30.80;45.50
17364;DHT22;8799;43.594;13.526;2022-07-23T15:35:31;30.90;45.50
17364;DHT22;8799;43.594;13.526;2022-07-23T15:37:59;31.00;45.80
17364;DHT22;8799;43.594;13.526;2022-07-23T15:40:27;31.00;45.70
17364;DHT22;8799;43.594;13.526;2022-07-23T15:42:55;31.00;45.10
17364;DHT22;8799;43.594;13.526;2022-07-23T15:45:29;31.10;45.20
17364;DHT22;8799;43.594;13.526;2022-07-23T15:47:59;31.10;45.20
17364;DHT22;8799;43.594;13.526;2022-07-23T15:50:28;31.10;45.20